sensor_id;sensor_type;location;lat;lon;timestamp;P1;durP1;ratioP1;P2;durP2;ratioP2
13683;SDS011;6914;53.552;9.908;2022-12-10T00:01:06;71.93;;;27.93;;
13683;SDS011;6914;53.552;9.908;2022-12-10T00:03:34;78.47;;;28.90;;
13683;SDS011;6914;53.552;9.908;2022-12-10T00:06:02;73.30;;;27.63;;
13683;SDS011;6914;53.552;9.908;2022-12-10T00:08:31;61.23;;;27.07;;
13683;SDS011;6914;53.552;9.908;2022-12-10T00:11:00;84.50;;;32.67;;
13683;SDS011;6914;53.552;9.908;2022-12-10T00:13:28;69.43;;;27.37;;
13683;SDS011;6914;53.552;9.908;2022-12-10T00:15:58;82.07;;;29.37;;
13683;SDS011;6914;53.552;9.908;2022-12-10T00:18:25;81.87;;;28.83;;
13683;SDS011;6914;53.552;9.908;2022-12-10T00:20:52;76.23;;;28.10;;
13683;SDS011;6914;53.552;9.908;2022-12-10T00:23:20;73.47;;;29.17;;
13683;SDS011;6914;53.552;9.908;2022-12-10T00:25:48;86.27;;;32.13;;
13683;SDS011;6914;53.552;9.908;2022-12-10T00:28:15;71.83;;;30.43;;
13683;SDS011;6914;53.552;9.908;2022-12-10T00:30:42;71.23;;;26.33;;
13683;SDS011;6914;53.552;9.908;2022-12-10T00:33:09;68.30;;;26.30;;
13683;SDS011;6914;53.552;9.908;2022-12-10T00:35:36;76.90;;;27.37;;
13683;SDS011;6914;53.552;9.908;2022-12-10T00:38:03;65.77;;;27.00;;
13683;SDS011;6914;53.552;9.908;2022-12-10T00:40:30;67.97;;;25.70;;
13683;SDS011;6914;53.552;9.908;2022-12-10T00:42:58;78.67;;;26.43;;
13683;SDS011;6914;53.552;9.908;2022-12-10T00:45:25;54.40;;;23.07;;
13683;SDS011;6914;53.552;9.908;2022-12-10T00:47:52;71.43;;;24.27;;
13683;SDS011;6914;53.552;9.908;2022-12-10T00:50:19;55.40;;;24.83;;
13683;SDS011;6914;53.552;9.908;2022-12-10T00:52:46;60.47;;;24.60;;
13683;SDS011;6914;53.552;9.908;2022-12-10T00:55:12;66.40;;;25.70;;
13683;SDS011;6914;53.552;9.908;2022-12-10T00:57:39;72.43;;;26.97;;
13683;SDS011;6914;53.552;9.908;2022-12-10T01:00:08;64.47;;;25.50;;
13683;SDS011;6914;53.552;9.908;2022-12-10T01:02:36;62.83;;;23.17;;
13683;SDS011;6914;53.552;9.908;2022-12-10T01:05:03;60.47;;;24.17;;
13683;SDS011;6914;53.552;9.908;2022-12-10T01:07:30;64.00;;;24.10;;
13683;SDS011;6914;53.552;9.908;2022-12-10T01:09:57;62.30;;;24.20;;
13683;SDS011;6914;53.552;9.908;2022-12-10T01:12:24;58.00;;;25.00;;
13683;SDS011;6914;53.552;9.908;2022-12-10T01:14:51;53.53;;;23.40;;
13683;SDS011;6914;53.552;9.908;2022-12-10T01:17:19;58.80;;;22.20;;
13683;SDS011;6914;53.552;9.908;2022-12-10T01:19:46;50.80;;;22.90;;
13683;SDS011;6914;53.552;9.908;2022-12-10T01:22:14;47.07;;;21.40;;
13683;SDS011;6914;53.552;9.908;2022-12-10T01:24:41;51.57;;;23.63;;
13683;SDS011;6914;53.552;9.908;2022-12-10T01:27:08;50.60;;;23.30;;
13683;SDS011;6914;53.552;9.908;2022-12-10T01:29:35;50.10;;;22.30;;
13683;SDS011;6914;53.552;9.908;2022-12-10T01:32:02;56.63;;;25.20;;
13683;SDS011;6914;53.552;9.908;2022-12-10T01:34:31;65.00;;;23.60;;
13683;SDS011;6914;53.552;9.908;2022-12-10T01:36:58;57.17;;;22.67;;
13683;SDS011;6914;53.552;9.908;2022-12-10T01:39:25;52.00;;;21.80;;
13683;SDS011;6914;53.552;9.908;2022-12-10T01:41:52;46.80;;;20.50;;
13683;SDS011;6914;53.552;9.908;2022-12-10T01:47:23;50.70;;;21.77;;
13683;SDS011;6914;53.552;9.908;2022-12-10T01:49:52;50.77;;;21.20;;
13683;SDS011;6914;53.552;9.908;2022-12-10T01:52:19;44.23;;;22.10;;
13683;SDS011;6914;53.552;9.908;2022-12-10T01:54:46;41.03;;;20.23;;
13683;SDS011;6914;53.552;9.908;2022-12-10T01:57:14;52.03;;;21.67;;
13683;SDS011;6914;53.552;9.908;2022-12-10T01:59:43;72.87;;;22.40;;
13683;SDS011;6914;53.552;9.908;2022-12-10T02:02:14;56.77;;;20.83;;
13683;SDS011;6914;53.552;9.908;2022-12-10T02:04:53;54.90;;;21.00;;
13683;SDS011;6914;53.552;9.908;2022-12-10T02:07:34;43.57;;;19.70;;
13683;SDS011;6914;53.552;9.908;2022-12-10T02:10:11;35.20;;;15.97;;
13683;SDS011;6914;53.552;9.908;2022-12-10T02:12:46;36.07;;;17.40;;
13683;SDS011;6914;53.552;9.908;2022-12-10T02:15:16;53.83;;;20.47;;
13683;SDS011;6914;53.552;9.908;2022-12-10T02:17:46;46.37;;;20.20;;
13683;SDS011;6914;53.552;9.908;2022-12-10T02:20:19;44.83;;;19.33;;
13683;SDS011;6914;53.552;9.908;2022-12-10T02:22:49;35.37;;;16.07;;
13683;SDS011;6914;53.552;9.908;2022-12-10T02:25:26;38.23;;;18.50;;
13683;SDS011;6914;53.552;9.908;2022-12-10T02:28:01;38.00;;;19.70;;
13683;SDS011;6914;53.552;9.908;2022-12-10T02:30:35;48.20;;;19.27;;
13683;SDS011;6914;53.552;9.908;2022-12-10T02:33:05;37.67;;;19.50;;
13683;SDS011;6914;53.552;9.908;2022-12-10T02:35:35;34.80;;;17.37;;
13683;SDS011;6914;53.552;9.908;2022-12-10T02:38:05;38.57;;;17.70;;
13683;SDS011;6914;53.552;9.908;2022-12-10T02:40:36;30.03;;;15.43;;
13683;SDS011;6914;53.552;9.908;2022-12-10T02:43:04;26.53;;;12.60;;
13683;SDS011;6914;53.552;9.908;2022-12-10T02:45:33;20.80;;;12.20;;
13683;SDS011;6914;53.552;9.908;2022-12-10T02:48:03;27.70;;;15.77;;
13683;SDS011;6914;53.552;9.908;2022-12-10T02:50:31;31.70;;;16.03;;
13683;SDS011;6914;53.552;9.908;2022-12-10T02:52:59;34.33;;;16.70;;
13683;SDS011;6914;53.552;9.908;2022-12-10T02:55:26;39.77;;;18.27;;
13683;SDS011;6914;53.552;9.908;2022-12-10T02:58:04;34.47;;;17.90;;
13683;SDS011;6914;53.552;9.908;2022-12-10T03:00:43;33.57;;;16.00;;
13683;SDS011;6914;53.552;9.908;2022-12-10T03:03:22;34.50;;;17.10;;
13683;SDS011;6914;53.552;9.908;2022-12-10T03:05:58;39.10;;;17.37;;
13683;SDS011;6914;53.552;9.908;2022-12-10T03:08:32;29.10;;;15.20;;
13683;SDS011;6914;53.552;9.908;2022-12-10T03:11:05;27.47;;;14.43;;
13683;SDS011;6914;53.552;9.908;2022-12-10T03:13:38;38.60;;;15.23;;
13683;SDS011;6914;53.552;9.908;2022-12-10T03:16:10;31.17;;;15.50;;
13683;SDS011;6914;53.552;9.908;2022-12-10T03:18:39;28.80;;;13.80;;
13683;SDS011;6914;53.552;9.908;2022-12-10T03:21:07;30.10;;;15.33;;
13683;SDS011;6914;53.552;9.908;2022-12-10T03:23:37;30.63;;;15.13;;
13683;SDS011;6914;53.552;9.908;2022-12-10T03:26:08;30.60;;;16.23;;
13683;SDS011;6914;53.552;9.908;2022-12-10T03:28:37;24.47;;;13.13;;
13683;SDS011;6914;53.552;9.908;2022-12-10T03:31:07;30.53;;;14.50;;
13683;SDS011;6914;53.552;9.908;2022-12-10T03:33:37;27.27;;;15.47;;
13683;SDS011;6914;53.552;9.908;2022-12-10T03:36:05;27.73;;;12.07;;
13683;SDS011;6914;53.552;9.908;2022-12-10T03:38:33;17.77;;;11.47;;
13683;SDS011;6914;53.552;9.908;2022-12-10T03:41:00;24.87;;;13.00;;
13683;SDS011;6914;53.552;9.908;2022-12-10T03:43:27;23.93;;;12.43;;
13683;SDS011;6914;53.552;9.908;2022-12-10T03:45:54;25.57;;;13.37;;
13683;SDS011;6914;53.552;9.908;2022-12-10T03:48:21;22.67;;;13.17;;
13683;SDS011;6914;53.552;9.908;2022-12-10T03:50:50;25.97;;;14.10;;
13683;SDS011;6914;53.552;9.908;2022-12-10T03:53:17;28.83;;;13.60;;
13683;SDS011;6914;53.552;9.908;2022-12-10T03:55:43;23.50;;;14.13;;
13683;SDS011;6914;53.552;9.908;2022-12-10T03:58:10;22.90;;;12.73;;
13683;SDS011;6914;53.552;9.908;2022-12-10T04:00:38;20.57;;;11.80;;
13683;SDS011;6914;53.552;9.908;2022-12-10T04:03:05;18.90;;;11.20;;
13683;SDS011;6914;53.552;9.908;2022-12-10T04:05:31;19.87;;;11.50;;
13683;SDS011;6914;53.552;9.908;2022-12-10T04:08:00;23.87;;;11.83;;
13683;SDS011;6914;53.552;9.908;2022-12-10T04:10:27;20.63;;;12.13;;
13683;SDS011;6914;53.552;9.908;2022-12-10T04:12:53;22.23;;;12.80;;
13683;SDS011;6914;53.552;9.908;2022-12-10T04:15:37;20.60;;;11.00;;
13683;SDS011;6914;53.552;9.908;2022-12-10T04:18:22;16.80;;;10.80;;
13683;SDS011;6914;53.552;9.908;2022-12-10T04:20:49;20.37;;;10.90;;
13683;SDS011;6914;53.552;9.908;2022-12-10T04:23:35;17.93;;;11.57;;
13683;SDS011;6914;53.552;9.908;2022-12-10T04:26:25;23.00;;;11.97;;
13683;SDS011;6914;53.552;9.908;2022-12-10T04:29:09;19.03;;;12.33;;
13683;SDS011;6914;53.552;9.908;2022-12-10T04:31:36;31.47;;;12.60;;
13683;SDS011;6914;53.552;9.908;2022-12-10T04:34:03;23.67;;;12.10;;
13683;SDS011;6914;53.552;9.908;2022-12-10T04:36:30;20.90;;;10.20;;
13683;SDS011;6914;53.552;9.908;2022-12-10T04:38:58;22.40;;;12.00;;
13683;SDS011;6914;53.552;9.908;2022-12-10T04:41:25;19.07;;;12.83;;
13683;SDS011;6914;53.552;9.908;2022-12-10T04:43:52;20.63;;;12.30;;
13683;SDS011;6914;53.552;9.908;2022-12-10T04:46:19;16.30;;;11.83;;
13683;SDS011;6914;53.552;9.908;2022-12-10T04:48:46;12.13;;;9.40;;
13683;SDS011;6914;53.552;9.908;2022-12-10T04:51:14;13.87;;;9.30;;
13683;SDS011;6914;53.552;9.908;2022-12-10T04:53:41;18.63;;;11.17;;
13683;SDS011;6914;53.552;9.908;2022-12-10T04:56:09;20.87;;;11.73;;
13683;SDS011;6914;53.552;9.908;2022-12-10T04:58:36;21.93;;;12.00;;
13683;SDS011;6914;53.552;9.908;2022-12-10T05:01:03;18.57;;;10.47;;
13683;SDS011;6914;53.552;9.908;2022-12-10T05:03:31;13.90;;;9.60;;
13683;SDS011;6914;53.552;9.908;2022-12-10T05:06:00;17.97;;;11.17;;
13683;SDS011;6914;53.552;9.908;2022-12-10T05:08:27;18.70;;;11.83;;
13683;SDS011;6914;53.552;9.908;2022-12-10T05:10:54;21.17;;;10.40;;
13683;SDS011;6914;53.552;9.908;2022-12-10T05:13:23;14.03;;;9.80;;
13683;SDS011;6914;53.552;9.908;2022-12-10T05:15:50;13.93;;;10.00;;
13683;SDS011;6914;53.552;9.908;2022-12-10T05:18:16;16.63;;;10.90;;
13683;SDS011;6914;53.552;9.908;2022-12-10T05:20:43;16.93;;;10.77;;
13683;SDS011;6914;53.552;9.908;2022-12-10T05:23:11;13.93;;;9.90;;
13683;SDS011;6914;53.552;9.908;2022-12-10T05:25:58;21.77;;;11.90;;
13683;SDS011;6914;53.552;9.908;2022-12-10T05:28:27;20.80;;;13.00;;
13683;SDS011;6914;53.552;9.908;2022-12-10T05:30:55;18.90;;;10.63;;
13683;SDS011;6914;53.552;9.908;2022-12-10T05:33:22;18.90;;;11.50;;
13683;SDS011;6914;53.552;9.908;2022-12-10T05:35:53;18.13;;;10.97;;
13683;SDS011;6914;53.552;9.908;2022-12-10T05:38:22;21.60;;;11.53;;
13683;SDS011;6914;53.552;9.908;2022-12-10T05:40:49;19.47;;;10.27;;
13683;SDS011;6914;53.552;9.908;2022-12-10T05:43:17;18.00;;;10.40;;
13683;SDS011;6914;53.552;9.908;2022-12-10T05:45:45;18.70;;;11.20;;
13683;SDS011;6914;53.552;9.908;2022-12-10T05:48:14;14.20;;;10.33;;
13683;SDS011;6914;53.552;9.908;2022-12-10T05:50:41;18.63;;;10.70;;
13683;SDS011;6914;53.552;9.908;2022-12-10T05:53:08;16.60;;;10.77;;
13683;SDS011;6914;53.552;9.908;2022-12-10T05:55:38;16.20;;;10.07;;
13683;SDS011;6914;53.552;9.908;2022-12-10T05:58:06;18.80;;;9.87;;
13683;SDS011;6914;53.552;9.908;2022-12-10T06:00:32;15.20;;;10.10;;
13683;SDS011;6914;53.552;9.908;2022-12-10T06:03:01;19.57;;;11.50;;
13683;SDS011;6914;53.552;9.908;2022-12-10T06:05:28;18.50;;;11.40;;
13683;SDS011;6914;53.552;9.908;2022-12-10T06:07:54;17.33;;;10.60;;
13683;SDS011;6914;53.552;9.908;2022-12-10T06:10:21;17.73;;;10.80;;
13683;SDS011;6914;53.552;9.908;2022-12-10T06:12:48;20.10;;;11.37;;
13683;SDS011;6914;53.552;9.908;2022-12-10T06:15:16;19.00;;;10.60;;
13683;SDS011;6914;53.552;9.908;2022-12-10T06:17:43;14.97;;;9.77;;
13683;SDS011;6914;53.552;9.908;2022-12-10T06:20:11;16.20;;;11.33;;
13683;SDS011;6914;53.552;9.908;2022-12-10T06:22:38;13.50;;;9.90;;
13683;SDS011;6914;53.552;9.908;2022-12-10T06:25:05;19.70;;;11.93;;
13683;SDS011;6914;53.552;9.908;2022-12-10T06:27:33;27.53;;;13.73;;
13683;SDS011;6914;53.552;9.908;2022-12-10T06:30:00;18.93;;;11.63;;
13683;SDS011;6914;53.552;9.908;2022-12-10T06:32:27;22.43;;;11.53;;
13683;SDS011;6914;53.552;9.908;2022-12-10T06:34:53;21.23;;;11.93;;
13683;SDS011;6914;53.552;9.908;2022-12-10T06:37:22;21.07;;;11.23;;
13683;SDS011;6914;53.552;9.908;2022-12-10T06:39:50;13.30;;;9.27;;
13683;SDS011;6914;53.552;9.908;2022-12-10T06:42:17;17.17;;;10.47;;
13683;SDS011;6914;53.552;9.908;2022-12-10T06:44:45;12.47;;;9.70;;
13683;SDS011;6914;53.552;9.908;2022-12-10T06:47:12;17.10;;;10.13;;
13683;SDS011;6914;53.552;9.908;2022-12-10T06:49:39;17.83;;;10.40;;
13683;SDS011;6914;53.552;9.908;2022-12-10T06:52:06;16.70;;;10.30;;
13683;SDS011;6914;53.552;9.908;2022-12-10T06:54:35;13.30;;;9.83;;
13683;SDS011;6914;53.552;9.908;2022-12-10T06:57:02;16.23;;;10.80;;
13683;SDS011;6914;53.552;9.908;2022-12-10T06:59:29;21.07;;;12.90;;
13683;SDS011;6914;53.552;9.908;2022-12-10T07:01:56;16.00;;;10.50;;
13683;SDS011;6914;53.552;9.908;2022-12-10T07:04:23;19.57;;;11.40;;
13683;SDS011;6914;53.552;9.908;2022-12-10T07:06:50;16.37;;;10.50;;
13683;SDS011;6914;53.552;9.908;2022-12-10T07:09:17;16.80;;;11.47;;
13683;SDS011;6914;53.552;9.908;2022-12-10T07:11:45;14.20;;;9.90;;
13683;SDS011;6914;53.552;9.908;2022-12-10T07:14:13;18.27;;;12.10;;
13683;SDS011;6914;53.552;9.908;2022-12-10T07:16:41;18.03;;;11.20;;
13683;SDS011;6914;53.552;9.908;2022-12-10T07:19:09;15.20;;;11.30;;
13683;SDS011;6914;53.552;9.908;2022-12-10T07:21:37;14.93;;;10.73;;
13683;SDS011;6914;53.552;9.908;2022-12-10T07:24:08;19.37;;;11.90;;
13683;SDS011;6914;53.552;9.908;2022-12-10T07:26:38;18.60;;;11.80;;
13683;SDS011;6914;53.552;9.908;2022-12-10T07:29:09;16.60;;;11.30;;
13683;SDS011;6914;53.552;9.908;2022-12-10T07:31:39;14.93;;;10.73;;
13683;SDS011;6914;53.552;9.908;2022-12-10T07:34:06;20.57;;;11.70;;
13683;SDS011;6914;53.552;9.908;2022-12-10T07:36:33;16.07;;;10.97;;
13683;SDS011;6914;53.552;9.908;2022-12-10T07:39:00;18.33;;;11.80;;
13683;SDS011;6914;53.552;9.908;2022-12-10T07:41:28;18.23;;;11.13;;
13683;SDS011;6914;53.552;9.908;2022-12-10T07:43:55;13.57;;;10.30;;
13683;SDS011;6914;53.552;9.908;2022-12-10T07:46:27;19.67;;;11.13;;
13683;SDS011;6914;53.552;9.908;2022-12-10T07:48:55;14.30;;;10.37;;
13683;SDS011;6914;53.552;9.908;2022-12-10T07:51:25;21.87;;;11.13;;
13683;SDS011;6914;53.552;9.908;2022-12-10T07:53:52;18.60;;;10.00;;
13683;SDS011;6914;53.552;9.908;2022-12-10T07:56:23;16.77;;;10.97;;
13683;SDS011;6914;53.552;9.908;2022-12-10T07:58:50;15.23;;;9.40;;
13683;SDS011;6914;53.552;9.908;2022-12-10T08:01:18;17.10;;;10.70;;
13683;SDS011;6914;53.552;9.908;2022-12-10T08:03:49;14.57;;;10.30;;
13683;SDS011;6914;53.552;9.908;2022-12-10T08:06:19;14.83;;;9.90;;
13683;SDS011;6914;53.552;9.908;2022-12-10T08:08:47;17.33;;;9.50;;
13683;SDS011;6914;53.552;9.908;2022-12-10T08:11:16;16.87;;;10.63;;
13683;SDS011;6914;53.552;9.908;2022-12-10T08:13:45;11.87;;;9.77;;
13683;SDS011;6914;53.552;9.908;2022-12-10T08:16:13;16.57;;;9.33;;
13683;SDS011;6914;53.552;9.908;2022-12-10T08:18:41;16.27;;;10.30;;
13683;SDS011;6914;53.552;9.908;2022-12-10T08:21:10;11.03;;;9.03;;
13683;SDS011;6914;53.552;9.908;2022-12-10T08:23:40;16.60;;;10.57;;
13683;SDS011;6914;53.552;9.908;2022-12-10T08:26:08;10.63;;;8.97;;
13683;SDS011;6914;53.552;9.908;2022-12-10T08:28:36;13.00;;;9.50;;
13683;SDS011;6914;53.552;9.908;2022-12-10T08:31:03;13.50;;;10.13;;
13683;SDS011;6914;53.552;9.908;2022-12-10T08:33:32;10.80;;;9.30;;
13683;SDS011;6914;53.552;9.908;2022-12-10T08:36:00;12.13;;;8.07;;
13683;SDS011;6914;53.552;9.908;2022-12-10T08:38:28;7.73;;;7.00;;
13683;SDS011;6914;53.552;9.908;2022-12-10T08:40:56;14.73;;;8.70;;
13683;SDS011;6914;53.552;9.908;2022-12-10T08:43:23;8.83;;;8.00;;
13683;SDS011;6914;53.552;9.908;2022-12-10T08:45:50;9.17;;;8.20;;
13683;SDS011;6914;53.552;9.908;2022-12-10T08:48:17;15.93;;;9.80;;
13683;SDS011;6914;53.552;9.908;2022-12-10T08:50:44;7.67;;;7.03;;
13683;SDS011;6914;53.552;9.908;2022-12-10T08:53:11;9.63;;;7.53;;
13683;SDS011;6914;53.552;9.908;2022-12-10T08:55:40;8.97;;;7.80;;
13683;SDS011;6914;53.552;9.908;2022-12-10T08:58:07;10.73;;;8.53;;
13683;SDS011;6914;53.552;9.908;2022-12-10T09:00:35;12.03;;;7.47;;
13683;SDS011;6914;53.552;9.908;2022-12-10T09:03:02;15.80;;;8.80;;
13683;SDS011;6914;53.552;9.908;2022-12-10T09:05:29;12.00;;;8.60;;
13683;SDS011;6914;53.552;9.908;2022-12-10T09:07:56;12.00;;;8.07;;
13683;SDS011;6914;53.552;9.908;2022-12-10T09:10:23;10.30;;;8.63;;
13683;SDS011;6914;53.552;9.908;2022-12-10T09:12:51;9.47;;;8.10;;
13683;SDS011;6914;53.552;9.908;2022-12-10T09:15:19;10.83;;;8.70;;
13683;SDS011;6914;53.552;9.908;2022-12-10T09:17:46;11.00;;;7.13;;
13683;SDS011;6914;53.552;9.908;2022-12-10T09:20:13;10.97;;;8.70;;
13683;SDS011;6914;53.552;9.908;2022-12-10T09:22:40;9.20;;;7.90;;
13683;SDS011;6914;53.552;9.908;2022-12-10T09:25:08;9.90;;;8.47;;
13683;SDS011;6914;53.552;9.908;2022-12-10T09:27:36;9.00;;;7.47;;
13683;SDS011;6914;53.552;9.908;2022-12-10T09:30:08;12.53;;;9.70;;
13683;SDS011;6914;53.552;9.908;2022-12-10T09:32:36;15.20;;;9.77;;
13683;SDS011;6914;53.552;9.908;2022-12-10T09:35:04;11.27;;;9.17;;
13683;SDS011;6914;53.552;9.908;2022-12-10T09:37:32;9.50;;;7.70;;
13683;SDS011;6914;53.552;9.908;2022-12-10T09:39:59;11.47;;;8.40;;
13683;SDS011;6914;53.552;9.908;2022-12-10T09:42:30;13.27;;;9.63;;
13683;SDS011;6914;53.552;9.908;2022-12-10T09:45:13;13.60;;;10.10;;
13683;SDS011;6914;53.552;9.908;2022-12-10T09:47:46;12.07;;;8.10;;
13683;SDS011;6914;53.552;9.908;2022-12-10T09:50:19;9.33;;;8.00;;
13683;SDS011;6914;53.552;9.908;2022-12-10T09:52:52;13.80;;;8.87;;
13683;SDS011;6914;53.552;9.908;2022-12-10T09:55:22;13.40;;;8.53;;
13683;SDS011;6914;53.552;9.908;2022-12-10T09:57:58;12.13;;;8.40;;
13683;SDS011;6914;53.552;9.908;2022-12-10T10:00:29;9.67;;;8.40;;
13683;SDS011;6914;53.552;9.908;2022-12-10T10:02:59;8.57;;;7.67;;
13683;SDS011;6914;53.552;9.908;2022-12-10T10:05:28;9.83;;;8.50;;
13683;SDS011;6914;53.552;9.908;2022-12-10T10:07:58;9.73;;;7.83;;
13683;SDS011;6914;53.552;9.908;2022-12-10T10:10:27;9.80;;;8.43;;
13683;SDS011;6914;53.552;9.908;2022-12-10T10:12:58;11.63;;;8.47;;
13683;SDS011;6914;53.552;9.908;2022-12-10T10:15:40;13.60;;;9.33;;
13683;SDS011;6914;53.552;9.908;2022-12-10T10:18:12;10.43;;;8.50;;
13683;SDS011;6914;53.552;9.908;2022-12-10T10:20:43;9.93;;;7.97;;
13683;SDS011;6914;53.552;9.908;2022-12-10T10:23:12;12.73;;;9.00;;
13683;SDS011;6914;53.552;9.908;2022-12-10T10:25:41;10.77;;;9.03;;
13683;SDS011;6914;53.552;9.908;2022-12-10T10:28:10;15.93;;;9.67;;
13683;SDS011;6914;53.552;9.908;2022-12-10T10:30:41;11.77;;;8.80;;
13683;SDS011;6914;53.552;9.908;2022-12-10T10:33:09;17.17;;;9.10;;
13683;SDS011;6914;53.552;9.908;2022-12-10T10:35:42;15.33;;;8.40;;
13683;SDS011;6914;53.552;9.908;2022-12-10T10:38:18;9.80;;;8.73;;
13683;SDS011;6914;53.552;9.908;2022-12-10T10:40:49;9.77;;;7.70;;
13683;SDS011;6914;53.552;9.908;2022-12-10T10:43:19;9.27;;;8.37;;
13683;SDS011;6914;53.552;9.908;2022-12-10T10:45:51;8.23;;;7.13;;
13683;SDS011;6914;53.552;9.908;2022-12-10T10:48:22;17.00;;;8.53;;
13683;SDS011;6914;53.552;9.908;2022-12-10T10:51:05;10.00;;;7.87;;
13683;SDS011;6914;53.552;9.908;2022-12-10T10:53:39;11.00;;;8.47;;
13683;SDS011;6914;53.552;9.908;2022-12-10T10:56:09;10.93;;;8.27;;
13683;SDS011;6914;53.552;9.908;2022-12-10T10:58:46;9.93;;;8.60;;
13683;SDS011;6914;53.552;9.908;2022-12-10T11:01:19;13.53;;;9.37;;
13683;SDS011;6914;53.552;9.908;2022-12-10T11:03:47;12.70;;;8.43;;
13683;SDS011;6914;53.552;9.908;2022-12-10T11:06:16;9.23;;;7.47;;
13683;SDS011;6914;53.552;9.908;2022-12-10T11:08:44;10.03;;;8.17;;
13683;SDS011;6914;53.552;9.908;2022-12-10T11:11:17;11.03;;;8.20;;
13683;SDS011;6914;53.552;9.908;2022-12-10T11:13:45;14.90;;;8.40;;
13683;SDS011;6914;53.552;9.908;2022-12-10T11:16:16;17.63;;;10.23;;
13683;SDS011;6914;53.552;9.908;2022-12-10T11:18:54;11.67;;;7.63;;
13683;SDS011;6914;53.552;9.908;2022-12-10T11:21:27;9.23;;;8.20;;
13683;SDS011;6914;53.552;9.908;2022-12-10T11:23:55;10.07;;;8.73;;
13683;SDS011;6914;53.552;9.908;2022-12-10T11:29:29;9.77;;;8.20;;
13683;SDS011;6914;53.552;9.908;2022-12-10T11:32:25;10.30;;;7.70;;
13683;SDS011;6914;53.552;9.908;2022-12-10T11:35:10;12.13;;;9.93;;
13683;SDS011;6914;53.552;9.908;2022-12-10T11:37:42;11.13;;;8.87;;
13683;SDS011;6914;53.552;9.908;2022-12-10T11:40:23;14.13;;;9.20;;
13683;SDS011;6914;53.552;9.908;2022-12-10T11:42:59;12.50;;;9.13;;
13683;SDS011;6914;53.552;9.908;2022-12-10T11:45:39;10.77;;;9.53;;
13683;SDS011;6914;53.552;9.908;2022-12-10T11:48:19;12.73;;;8.87;;
13683;SDS011;6914;53.552;9.908;2022-12-10T11:50:57;9.57;;;8.50;;
13683;SDS011;6914;53.552;9.908;2022-12-10T11:53:38;11.70;;;9.10;;
13683;SDS011;6914;53.552;9.908;2022-12-10T11:56:19;14.33;;;9.27;;
13683;SDS011;6914;53.552;9.908;2022-12-10T11:58:57;12.20;;;9.33;;
13683;SDS011;6914;53.552;9.908;2022-12-10T12:04:42;12.20;;;9.90;;
13683;SDS011;6914;53.552;9.908;2022-12-10T12:07:31;13.73;;;9.73;;
13683;SDS011;6914;53.552;9.908;2022-12-10T12:10:14;18.20;;;10.30;;
13683;SDS011;6914;53.552;9.908;2022-12-10T12:12:54;12.30;;;9.83;;
13683;SDS011;6914;53.552;9.908;2022-12-10T12:15:25;15.23;;;11.50;;
13683;SDS011;6914;53.552;9.908;2022-12-10T12:17:57;17.43;;;11.83;;
13683;SDS011;6914;53.552;9.908;2022-12-10T12:20:30;17.40;;;10.97;;
13683;SDS011;6914;53.552;9.908;2022-12-10T12:23:00;11.77;;;9.67;;
13683;SDS011;6914;53.552;9.908;2022-12-10T12:25:31;11.00;;;9.20;;
13683;SDS011;6914;53.552;9.908;2022-12-10T12:28:03;11.53;;;9.83;;
13683;SDS011;6914;53.552;9.908;2022-12-10T12:30:37;11.27;;;8.97;;
13683;SDS011;6914;53.552;9.908;2022-12-10T12:33:08;14.17;;;9.97;;
13683;SDS011;6914;53.552;9.908;2022-12-10T12:35:42;12.30;;;9.63;;
13683;SDS011;6914;53.552;9.908;2022-12-10T12:38:19;10.73;;;9.10;;
13683;SDS011;6914;53.552;9.908;2022-12-10T12:40:53;11.87;;;9.67;;
13683;SDS011;6914;53.552;9.908;2022-12-10T12:43:26;13.40;;;9.40;;
13683;SDS011;6914;53.552;9.908;2022-12-10T12:46:09;11.37;;;8.63;;
13683;SDS011;6914;53.552;9.908;2022-12-10T12:48:41;11.33;;;9.40;;
13683;SDS011;6914;53.552;9.908;2022-12-10T12:51:19;12.90;;;9.23;;
13683;SDS011;6914;53.552;9.908;2022-12-10T12:53:51;16.40;;;10.00;;
13683;SDS011;6914;53.552;9.908;2022-12-10T12:56:21;18.73;;;10.23;;
13683;SDS011;6914;53.552;9.908;2022-12-10T12:58:59;15.30;;;10.43;;
13683;SDS011;6914;53.552;9.908;2022-12-10T13:01:35;11.63;;;9.20;;
13683;SDS011;6914;53.552;9.908;2022-12-10T13:04:08;16.20;;;10.47;;
13683;SDS011;6914;53.552;9.908;2022-12-10T13:06:38;12.73;;;10.40;;
13683;SDS011;6914;53.552;9.908;2022-12-10T13:09:17;12.00;;;9.03;;
13683;SDS011;6914;53.552;9.908;2022-12-10T13:14:56;18.03;;;10.23;;
13683;SDS011;6914;53.552;9.908;2022-12-10T13:17:31;13.90;;;9.03;;
13683;SDS011;6914;53.552;9.908;2022-12-10T13:22:56;13.47;;;9.93;;
13683;SDS011;6914;53.552;9.908;2022-12-10T13:25:37;14.90;;;9.30;;
13683;SDS011;6914;53.552;9.908;2022-12-10T13:28:22;12.80;;;10.10;;
13683;SDS011;6914;53.552;9.908;2022-12-10T13:33:47;10.80;;;9.67;;
13683;SDS011;6914;53.552;9.908;2022-12-10T13:36:21;14.23;;;10.53;;
13683;SDS011;6914;53.552;9.908;2022-12-10T13:38:57;11.90;;;9.57;;
13683;SDS011;6914;53.552;9.908;2022-12-10T13:41:39;17.80;;;11.00;;
13683;SDS011;6914;53.552;9.908;2022-12-10T13:44:31;15.40;;;9.43;;
13683;SDS011;6914;53.552;9.908;2022-12-10T13:47:04;15.53;;;10.57;;
13683;SDS011;6914;53.552;9.908;2022-12-10T13:49:49;14.43;;;9.87;;
13683;SDS011;6914;53.552;9.908;2022-12-10T13:52:22;12.90;;;9.97;;
13683;SDS011;6914;53.552;9.908;2022-12-10T13:58:04;14.73;;;9.73;;
13683;SDS011;6914;53.552;9.908;2022-12-10T14:00:44;14.63;;;8.73;;
13683;SDS011;6914;53.552;9.908;2022-12-10T14:03:23;15.23;;;9.67;;
13683;SDS011;6914;53.552;9.908;2022-12-10T14:06:11;14.80;;;9.60;;
13683;SDS011;6914;53.552;9.908;2022-12-10T14:08:41;14.57;;;9.60;;
13683;SDS011;6914;53.552;9.908;2022-12-10T14:11:22;12.73;;;9.13;;
13683;SDS011;6914;53.552;9.908;2022-12-10T14:13:53;12.23;;;9.37;;
13683;SDS011;6914;53.552;9.908;2022-12-10T14:16:24;12.30;;;10.20;;
13683;SDS011;6914;53.552;9.908;2022-12-10T14:18:55;11.90;;;9.40;;
13683;SDS011;6914;53.552;9.908;2022-12-10T14:21:26;13.23;;;9.87;;
13683;SDS011;6914;53.552;9.908;2022-12-10T14:23:57;14.17;;;10.13;;
13683;SDS011;6914;53.552;9.908;2022-12-10T14:26:28;16.67;;;10.70;;
13683;SDS011;6914;53.552;9.908;2022-12-10T14:28:56;16.40;;;10.57;;
13683;SDS011;6914;53.552;9.908;2022-12-10T14:31:26;13.50;;;9.13;;
13683;SDS011;6914;53.552;9.908;2022-12-10T14:33:57;14.87;;;10.80;;
13683;SDS011;6914;53.552;9.908;2022-12-10T14:36:28;14.60;;;9.83;;
13683;SDS011;6914;53.552;9.908;2022-12-10T14:38:58;13.07;;;9.60;;
13683;SDS011;6914;53.552;9.908;2022-12-10T14:41:28;15.07;;;9.27;;
13683;SDS011;6914;53.552;9.908;2022-12-10T14:43:57;15.93;;;10.83;;
13683;SDS011;6914;53.552;9.908;2022-12-10T14:46:30;20.80;;;11.20;;
13683;SDS011;6914;53.552;9.908;2022-12-10T14:48:57;14.13;;;10.23;;
13683;SDS011;6914;53.552;9.908;2022-12-10T14:51:26;16.47;;;10.90;;
13683;SDS011;6914;53.552;9.908;2022-12-10T14:53:59;15.77;;;11.00;;
13683;SDS011;6914;53.552;9.908;2022-12-10T14:56:28;16.50;;;10.77;;
13683;SDS011;6914;53.552;9.908;2022-12-10T14:59:02;17.30;;;11.37;;
13683;SDS011;6914;53.552;9.908;2022-12-10T15:01:34;17.20;;;11.67;;
13683;SDS011;6914;53.552;9.908;2022-12-10T15:04:06;18.47;;;12.57;;
13683;SDS011;6914;53.552;9.908;2022-12-10T15:06:38;20.60;;;11.47;;
13683;SDS011;6914;53.552;9.908;2022-12-10T15:09:09;20.57;;;11.10;;
13683;SDS011;6914;53.552;9.908;2022-12-10T15:11:42;16.77;;;10.40;;
13683;SDS011;6914;53.552;9.908;2022-12-10T15:14:10;16.80;;;11.00;;
13683;SDS011;6914;53.552;9.908;2022-12-10T15:16:44;17.40;;;10.93;;
13683;SDS011;6914;53.552;9.908;2022-12-10T15:19:16;14.53;;;10.43;;
13683;SDS011;6914;53.552;9.908;2022-12-10T15:21:46;17.67;;;12.07;;